deformed-offering

Nearby METAR Reports

 

KNUQ - Moffett Nas/Mtn, California, USA
Distance from station: N 9mi, 14km
Updated: Sat, 20-Apr-2019 9:56am PDT
Partly Cloudy
Partly Cloudy
 Wind from WNW
Wind: WNW 7 mph , 11 km/h
Temperature: 59°F , 15°C
Dew Point: 48°F , 9°C
Humidity: 68%
Barometer: 29.98 inHg , 1015.2 hPa
Clouds: Partly Cloudy
Visibility: 10 miles , 16 km
Cloud details: Partly Cloudy 2200 ft
Partly Cloudy 2800 ft
2019/04/20 16:56 KNUQ 201656Z 30006KT 10SM SCT022 SCT028 15/09 A2998 RMK AO2 SLP155 T01500094 $
KSJC - San Jose, California, USA
Distance from station: NE 9mi, 14km
Updated: Sat, 20-Apr-2019 9:53am PDT
Overcast
Overcast
 Wind from NNW
Wind: NNW 6 mph , 9 km/h
Temperature: 57°F , 14°C
Dew Point: 52°F , 11°C
Humidity: 82%
Barometer: 29.98 inHg , 1015.2 hPa
Clouds: Overcast
Visibility: 10 miles , 16 km
Cloud details: Few Clouds 2200 ft
Overcast 2500 ft
2019/04/20 16:53 KSJC 201653Z 33005KT 10SM FEW022 OVC025 14/11 A2998 RMK AO2 SLP150 T01440111 $
 
KRHV - San Jose/Reid, California, USA
Distance from station: ENE 12mi, 19km
Updated: Sat, 20-Apr-2019 9:47am PDT
Overcast
Overcast
 Wind from NNW
Wind: NNW 9 mph , 15 km/h
Temperature: 57°F , 14°C
Dew Point: 50°F , 10°C
Humidity: 77%
Barometer: 29.98 inHg , 1015.2 hPa
Clouds: Overcast
Visibility: 10 miles , 16 km
Cloud details: Mostly Cloudy 1500 ft
Mostly Cloudy 3500 ft
Overcast 10000 ft
2019/04/20 16:47 KRHV 201647Z 34008KT 10SM BKN015 BKN035 OVC100 14/10 A2998
KPAO - Palo Alto, California, USA
Distance from station: NNW 14mi, 23km
Updated: Sat, 20-Apr-2019 7:47am PDT
NOT Current
Overcast
Overcast
 Wind from W
Wind: W 8 mph , 13 km/h
Temperature: 55°F , 13°C
Dew Point: 52°F , 11°C
Humidity: 88%
Barometer: 29.95 inHg , 1014.2 hPa
Clouds: Overcast
Visibility: 10 miles , 16 km
Cloud details: Partly Cloudy 1700 ft
Overcast 2500 ft
2019/04/20 14:47 KPAO 201447Z 28007KT 10SM SCT017 OVC025 13/11 A2995
 
KSQL - San Carlos Airpo, California, USA
Distance from station: NW 21mi, 34km
Updated: Sat, 20-Apr-2019 9:47am PDT
Overcast
Overcast
 Wind from W
Wind: W 18 mph , 30 km/h, Gust: 26 mph , 43 km/h
Temperature: 57°F , 14°C
Dew Point: 50°F , 10°C
Humidity: 77%
Barometer: 29.97 inHg , 1014.9 hPa
Clouds: Overcast
Visibility: 8 miles , 13 km
Cloud details: Overcast 1700 ft
2019/04/20 16:47 KSQL 201647Z 26016G23KT 8SM OVC017 14/10 A2997
KE16 - San Martin, California, USA
Distance from station: ESE 27mi, 43km
Updated: Sat, 20-Apr-2019 9:55am PDT
Overcast
Overcast
 Wind from S
Wind: S 3 mph , 6 km/h
Temperature: 55°F , 13°C
Dew Point: 50°F , 10°C
Humidity: 82%
Barometer: 30.00 inHg , 1015.9 hPa
Clouds: Overcast
Visibility: 10 miles , 16 km
Cloud details: Mostly Cloudy 2000 ft
Overcast 2500 ft
2019/04/20 16:55 KE16 201655Z AUTO 19003KT 10SM BKN020 OVC025 13/10 A3000 RMK AO2
 
KWVI - Watsonville, California, USA
Distance from station: SSE 27mi, 44km
Updated: Sat, 20-Apr-2019 9:53am PDT
Overcast
Overcast
 Wind from SSW
Wind: SSW 5 mph , 7 km/h
Temperature: 57°F , 14°C
Dew Point: 52°F , 11°C
Humidity: 82%
Barometer: 29.99 inHg , 1015.6 hPa
Clouds: Overcast
Visibility: 10 miles , 16 km
Cloud details: Mostly Cloudy 1600 ft
Overcast 2200 ft
2019/04/20 16:53 KWVI 201653Z AUTO 21004KT 10SM BKN016 OVC022 14/11 A2999 RMK AO2 SLP155 T01390111
KHWD - Hayward, California, USA
Distance from station: N 28mi, 44km
Updated: Sat, 20-Apr-2019 9:54am PDT
Overcast
Overcast
 Wind from W
Wind: W 15 mph , 24 km/h, Gust: 22 mph , 35 km/h
Temperature: 55°F , 13°C
Dew Point: 52°F , 11°C
Humidity: 88%
Barometer: 29.96 inHg , 1014.6 hPa
Clouds: Overcast
Visibility: 10 miles , 16 km
Cloud details: Overcast 1000 ft
2019/04/20 16:54 KHWD 201654Z 26013G19KT 10SM OVC010 13/11 A2996 RMK AO2 CIG 009V014 SLP154 T01330106
 
KSFO - San Francisco, California, USA
Distance from station: NW 30mi, 49km
Updated: Sat, 20-Apr-2019 9:56am PDT
Overcast
Overcast
 Wind from W
Wind: W 28 mph , 44 km/h, Gust: 35 mph , 56 km/h
Temperature: 55°F , 13°C
Dew Point: 48°F , 9°C
Humidity: 77%
Barometer: 29.96 inHg , 1014.6 hPa
Clouds: Overcast
Visibility: 8 miles , 13 km
Cloud details: Few Clouds 600 ft
Mostly Cloudy 900 ft
Overcast 1200 ft
2019/04/20 16:56 KSFO 201656Z 26024G30KT 8SM FEW006 BKN009 OVC012 13/09 A2996 RMK AO2 PK WND 28032/1559 SLP145 T01280094
KHAF - Half Moon Bay, California, USA
Distance from station: WNW 31mi, 50km
Updated: Sat, 20-Apr-2019 10:00am PDT
Mist, Overcast
Mist, Overcast
 Wind from NW
Wind: NW 20 mph , 31 km/h, Gust: 28 mph , 44 km/h
Temperature: 54°F , 12°C
Dew Point: 50°F , 10°C
Humidity: 88%
Barometer: 29.99 inHg , 1015.6 hPa
Summary: Mist
Clouds: Overcast
Visibility: 5 miles , 8 km
Cloud details: Overcast 1100 ft
2019/04/20 17:00 KHAF 201700Z AUTO 32017G24KT 5SM BR OVC011 12/10 A2999 RMK AO2
 
KOAK - Oakland, California, USA
Distance from station: NNW 31mi, 50km
Updated: Sat, 20-Apr-2019 9:53am PDT
Mostly Cloudy
Mostly Cloudy
 Wind from W
Wind: W 21 mph , 33 km/h
Temperature: 55°F , 13°C
Dew Point: 52°F , 11°C
Humidity: 88%
Barometer: 29.94 inHg , 1013.9 hPa
Clouds: Mostly Cloudy
Visibility: 10 miles , 16 km
Cloud details: Mostly Cloudy 1000 ft
Mostly Cloudy 16000 ft
2019/04/20 16:53 KOAK 201653Z 27018KT 10SM BKN010 BKN160 13/11 A2994 RMK AO2 SLP137 T01330106
KLVK - Livermore, California, USA
Distance from station: NNE 31mi, 51km
Updated: Sat, 20-Apr-2019 9:53am PDT
Overcast
Overcast
 Wind from SW
Wind: SW 16 mph , 26 km/h
Temperature: 54°F , 12°C
Dew Point: 50°F , 10°C
Humidity: 88%
Barometer: 29.94 inHg , 1013.9 hPa
Clouds: Overcast
Visibility: 10 miles , 16 km
Cloud details: Overcast 1000 ft
2019/04/20 16:53 KLVK 201653Z 23014KT 10SM OVC010 12/10 A2994 RMK AO2 SLP137 T01220100
 
KCVH - Hollister Muni, California, USA
Distance from station: SE 42mi, 68km
Updated: Thu, 18-Apr-2019 7:35am PDT
NOT Current
Few Clouds
Few Clouds
 Wind from calm
Wind: Calm
Temperature: 48°F , 9°C
Dew Point: 46°F , 8°C
Humidity: 94%
Barometer: 30.17 inHg , 1021.7 hPa
Clouds: Few Clouds
Visibility: 10 miles , 16 km
Cloud details: Few Clouds 11000 ft
2019/04/18 14:35 KCVH 181435Z AUTO 00000KT 10SM FEW110 09/08 A3017 RMK A01
KSNS - Salinas, California, USA
Distance from station: SSE 48mi, 77km
Updated: Sat, 20-Apr-2019 9:53am PDT
Haze, Overcast
Haze, Overcast
 Wind from W
Wind: W 13 mph , 20 km/h
Temperature: 57°F , 14°C
Dew Point: 52°F , 11°C
Humidity: 82%
Barometer: 30.00 inHg , 1015.9 hPa
Summary: Haze
Clouds: Overcast
Visibility: 6 miles , 10 km
Cloud details: Mostly Cloudy 1000 ft
Overcast 1500 ft
2019/04/20 16:53 KSNS 201653Z 26011KT 6SM HZ BKN010 OVC015 14/11 A3000 RMK AO2 SLP169 T01390111
 
KMRY - Monterey, California, USA
Distance from station: SSE 49mi, 78km
Updated: Sat, 20-Apr-2019 9:54am PDT
Mist, Overcast
Mist, Overcast
 Wind from WNW
Wind: WNW 8 mph , 13 km/h
Temperature: 55°F , 13°C
Dew Point: 52°F , 11°C
Humidity: 88%
Barometer: 30.02 inHg , 1016.6 hPa
Summary: Mist
Clouds: Overcast
Visibility: 6 miles , 10 km
Cloud details: Overcast 800 ft
2019/04/20 16:54 KMRY 201654Z 29007KT 6SM BR OVC008 13/11 A3002 RMK AO2 CIG 005V011 SLP178 T01280106
KCCR - Concord, California, USA
Distance from station: N 50mi, 81km
Updated: Sat, 20-Apr-2019 9:53am PDT
Partly Cloudy
Partly Cloudy
 Wind from WSW
Wind: WSW 10 mph , 17 km/h
Temperature: 61°F , 16°C
Dew Point: 50°F , 10°C
Humidity: 68%
Barometer: 29.91 inHg , 1012.9 hPa
Clouds: Partly Cloudy
Visibility: 10 miles , 16 km
Cloud details: Partly Cloudy 2200 ft
Partly Cloudy 8000 ft
2019/04/20 16:53 KCCR 201653Z 24009KT 10SM SCT022 SCT080 16/10 A2991 RMK AO2 SLP114 T01610100
deformed-offering